sensor_id;sensor_type;location;lat;lon;timestamp;pressure;altitude;pressure_sealevel;temperature;humidity
32324;BME280;25666;44.350;9.222;2023-05-24T00:01:32;101412.16;;;17.15;100.00
32324;BME280;25666;44.350;9.222;2023-05-24T00:03:58;101412.69;;;16.98;100.00
32324;BME280;25666;44.350;9.222;2023-05-24T00:06:25;101413.72;;;17.12;100.00
32324;BME280;25666;44.350;9.222;2023-05-24T00:08:54;101403.47;;;16.97;100.00
32324;BME280;25666;44.350;9.222;2023-05-24T00:11:20;101413.78;;;16.90;100.00
32324;BME280;25666;44.350;9.222;2023-05-24T00:13:47;101401.97;;;16.81;100.00
32324;BME280;25666;44.350;9.222;2023-05-24T00:16:13;101411.72;;;16.87;100.00
32324;BME280;25666;44.350;9.222;2023-05-24T00:18:38;101411.16;;;16.78;100.00
32324;BME280;25666;44.350;9.222;2023-05-24T00:21:06;101411.97;;;16.78;100.00
32324;BME280;25666;44.350;9.222;2023-05-24T00:23:33;101409.38;;;16.92;100.00
32324;BME280;25666;44.350;9.222;2023-05-24T00:25:58;101395.78;;;16.94;100.00
32324;BME280;25666;44.350;9.222;2023-05-24T00:28:25;101399.94;;;17.04;100.00
32324;BME280;25666;44.350;9.222;2023-05-24T00:30:51;101401.19;;;17.06;100.00
32324;BME280;25666;44.350;9.222;2023-05-24T00:33:16;101396.13;;;16.93;100.00
32324;BME280;25666;44.350;9.222;2023-05-24T00:35:42;101399.78;;;16.71;100.00
32324;BME280;25666;44.350;9.222;2023-05-24T00:38:07;101400.19;;;16.69;100.00
32324;BME280;25666;44.350;9.222;2023-05-24T00:40:33;101401.56;;;16.79;100.00
32324;BME280;25666;44.350;9.222;2023-05-24T00:42:58;101393.41;;;16.74;100.00
32324;BME280;25666;44.350;9.222;2023-05-24T00:45:24;101398.34;;;16.57;100.00
32324;BME280;25666;44.350;9.222;2023-05-24T00:47:49;101396.34;;;16.81;100.00
32324;BME280;25666;44.350;9.222;2023-05-24T00:50:15;101394.16;;;16.93;100.00
32324;BME280;25666;44.350;9.222;2023-05-24T00:52:41;101400.28;;;16.76;100.00
32324;BME280;25666;44.350;9.222;2023-05-24T00:55:08;101400.66;;;16.75;100.00
32324;BME280;25666;44.350;9.222;2023-05-24T00:57:35;101406.91;;;16.87;100.00
32324;BME280;25666;44.350;9.222;2023-05-24T01:00:02;101407.81;;;16.95;100.00
32324;BME280;25666;44.350;9.222;2023-05-24T01:02:28;101392.44;;;16.89;100.00
32324;BME280;25666;44.350;9.222;2023-05-24T01:04:55;101399.66;;;16.86;100.00
32324;BME280;25666;44.350;9.222;2023-05-24T01:10:30;101403.69;;;16.89;100.00
32324;BME280;25666;44.350;9.222;2023-05-24T01:15:58;101411.06;;;16.51;100.00
32324;BME280;25666;44.350;9.222;2023-05-24T01:18:32;101402.38;;;16.56;100.00
32324;BME280;25666;44.350;9.222;2023-05-24T01:26:41;101406.44;;;16.85;100.00
32324;BME280;25666;44.350;9.222;2023-05-24T01:29:12;101410.91;;;16.86;100.00
32324;BME280;25666;44.350;9.222;2023-05-24T01:31:39;101409.97;;;16.79;100.00
32324;BME280;25666;44.350;9.222;2023-05-24T01:34:05;101414.44;;;16.57;100.00
32324;BME280;25666;44.350;9.222;2023-05-24T01:36:30;101419.78;;;16.66;100.00
32324;BME280;25666;44.350;9.222;2023-05-24T01:38:56;101413.97;;;16.55;100.00
32324;BME280;25666;44.350;9.222;2023-05-24T01:41:29;101422.69;;;16.50;100.00
32324;BME280;25666;44.350;9.222;2023-05-24T01:46:37;101425.03;;;16.48;100.00
32324;BME280;25666;44.350;9.222;2023-05-24T01:49:17;101421.22;;;16.56;100.00
32324;BME280;25666;44.350;9.222;2023-05-24T01:52:26;101420.56;;;16.43;100.00
32324;BME280;25666;44.350;9.222;2023-05-24T01:54:55;101413.38;;;16.46;100.00
32324;BME280;25666;44.350;9.222;2023-05-24T01:57:21;101412.88;;;16.40;100.00
32324;BME280;25666;44.350;9.222;2023-05-24T01:59:49;101412.94;;;16.44;100.00
32324;BME280;25666;44.350;9.222;2023-05-24T02:02:15;101414.88;;;16.40;100.00
32324;BME280;25666;44.350;9.222;2023-05-24T02:04:41;101417.63;;;16.36;100.00
32324;BME280;25666;44.350;9.222;2023-05-24T02:07:07;101423.81;;;16.45;100.00
32324;BME280;25666;44.350;9.222;2023-05-24T02:09:32;101412.38;;;16.35;100.00
32324;BME280;25666;44.350;9.222;2023-05-24T02:11:58;101407.81;;;16.27;100.00
32324;BME280;25666;44.350;9.222;2023-05-24T02:14:23;101408.97;;;15.84;100.00
32324;BME280;25666;44.350;9.222;2023-05-24T02:16:49;101418.06;;;15.77;100.00
32324;BME280;25666;44.350;9.222;2023-05-24T02:19:15;101410.38;;;15.93;100.00
32324;BME280;25666;44.350;9.222;2023-05-24T02:21:42;101416.50;;;15.99;100.00
32324;BME280;25666;44.350;9.222;2023-05-24T02:24:09;101412.69;;;15.88;100.00
32324;BME280;25666;44.350;9.222;2023-05-24T02:26:39;101410.59;;;15.66;100.00
32324;BME280;25666;44.350;9.222;2023-05-24T02:29:05;101407.91;;;15.73;100.00
32324;BME280;25666;44.350;9.222;2023-05-24T02:31:30;101408.75;;;15.92;100.00
32324;BME280;25666;44.350;9.222;2023-05-24T02:33:56;101406.75;;;15.93;100.00
32324;BME280;25666;44.350;9.222;2023-05-24T02:36:22;101405.91;;;16.12;100.00
32324;BME280;25666;44.350;9.222;2023-05-24T02:38:49;101398.91;;;16.02;100.00
32324;BME280;25666;44.350;9.222;2023-05-24T02:41:15;101404.38;;;15.95;100.00
32324;BME280;25666;44.350;9.222;2023-05-24T02:43:46;101401.50;;;15.91;100.00
32324;BME280;25666;44.350;9.222;2023-05-24T02:46:13;101394.69;;;15.92;100.00
32324;BME280;25666;44.350;9.222;2023-05-24T02:48:39;101394.19;;;15.87;100.00
32324;BME280;25666;44.350;9.222;2023-05-24T02:51:04;101394.69;;;15.92;100.00
32324;BME280;25666;44.350;9.222;2023-05-24T02:53:31;101396.94;;;15.83;100.00
32324;BME280;25666;44.350;9.222;2023-05-24T02:55:57;101390.34;;;15.76;100.00
32324;BME280;25666;44.350;9.222;2023-05-24T02:58:24;101392.41;;;15.79;100.00
32324;BME280;25666;44.350;9.222;2023-05-24T03:00:49;101399.81;;;15.87;100.00
32324;BME280;25666;44.350;9.222;2023-05-24T03:03:17;101391.63;;;15.97;100.00
32324;BME280;25666;44.350;9.222;2023-05-24T03:05:44;101396.47;;;16.00;100.00
32324;BME280;25666;44.350;9.222;2023-05-24T03:08:11;101392.69;;;16.12;100.00
32324;BME280;25666;44.350;9.222;2023-05-24T03:10:37;101401.44;;;15.88;100.00
32324;BME280;25666;44.350;9.222;2023-05-24T03:13:04;101388.84;;;16.01;100.00
32324;BME280;25666;44.350;9.222;2023-05-24T03:15:30;101380.72;;;16.15;100.00
32324;BME280;25666;44.350;9.222;2023-05-24T03:17:56;101397.06;;;16.10;100.00
32324;BME280;25666;44.350;9.222;2023-05-24T03:20:21;101389.88;;;16.12;100.00
32324;BME280;25666;44.350;9.222;2023-05-24T03:22:48;101391.50;;;16.13;100.00
32324;BME280;25666;44.350;9.222;2023-05-24T03:25:13;101395.09;;;15.91;100.00
32324;BME280;25666;44.350;9.222;2023-05-24T03:27:39;101399.97;;;15.94;100.00
32324;BME280;25666;44.350;9.222;2023-05-24T03:30:05;101397.00;;;15.87;100.00
32324;BME280;25666;44.350;9.222;2023-05-24T03:32:36;101401.81;;;15.86;100.00
32324;BME280;25666;44.350;9.222;2023-05-24T03:35:02;101405.13;;;15.73;100.00
32324;BME280;25666;44.350;9.222;2023-05-24T03:37:28;101409.19;;;15.75;100.00
32324;BME280;25666;44.350;9.222;2023-05-24T03:39:53;101410.06;;;15.60;100.00
32324;BME280;25666;44.350;9.222;2023-05-24T03:42:46;101411.41;;;15.66;100.00
32324;BME280;25666;44.350;9.222;2023-05-24T03:45:12;101415.56;;;15.72;100.00
32324;BME280;25666;44.350;9.222;2023-05-24T03:47:37;101415.16;;;15.74;100.00
32324;BME280;25666;44.350;9.222;2023-05-24T03:50:03;101411.28;;;15.78;100.00
32324;BME280;25666;44.350;9.222;2023-05-24T03:52:29;101421.44;;;15.67;100.00
32324;BME280;25666;44.350;9.222;2023-05-24T03:54:54;101422.19;;;15.64;100.00
32324;BME280;25666;44.350;9.222;2023-05-24T03:57:20;101423.50;;;15.70;100.00
32324;BME280;25666;44.350;9.222;2023-05-24T03:59:45;101421.44;;;15.67;100.00
32324;BME280;25666;44.350;9.222;2023-05-24T04:02:11;101422.25;;;15.68;100.00
32324;BME280;25666;44.350;9.222;2023-05-24T04:04:36;101425.72;;;15.61;100.00
32324;BME280;25666;44.350;9.222;2023-05-24T04:07:02;101425.88;;;15.49;100.00
32324;BME280;25666;44.350;9.222;2023-05-24T04:09:28;101428.56;;;15.45;100.00
32324;BME280;25666;44.350;9.222;2023-05-24T04:11:54;101429.66;;;15.41;100.00
32324;BME280;25666;44.350;9.222;2023-05-24T04:14:20;101431.13;;;15.50;100.00
32324;BME280;25666;44.350;9.222;2023-05-24T04:16:46;101432.38;;;15.53;100.00
32324;BME280;25666;44.350;9.222;2023-05-24T04:19:12;101432.25;;;15.65;100.00
32324;BME280;25666;44.350;9.222;2023-05-24T04:21:38;101430.00;;;15.55;100.00
32324;BME280;25666;44.350;9.222;2023-05-24T04:24:04;101434.59;;;15.82;100.00
32324;BME280;25666;44.350;9.222;2023-05-24T04:26:31;101431.19;;;15.92;100.00
32324;BME280;25666;44.350;9.222;2023-05-24T04:28:58;101427.88;;;16.06;100.00
32324;BME280;25666;44.350;9.222;2023-05-24T04:31:24;101427.41;;;16.04;100.00
32324;BME280;25666;44.350;9.222;2023-05-24T04:33:50;101432.25;;;16.03;100.00
32324;BME280;25666;44.350;9.222;2023-05-24T04:36:16;101435.34;;;15.98;100.00
32324;BME280;25666;44.350;9.222;2023-05-24T04:38:42;101425.22;;;16.13;100.00
32324;BME280;25666;44.350;9.222;2023-05-24T04:41:10;101428.13;;;16.20;100.00
32324;BME280;25666;44.350;9.222;2023-05-24T04:43:36;101430.53;;;16.18;100.00
32324;BME280;25666;44.350;9.222;2023-05-24T04:46:02;101434.53;;;16.40;100.00
32324;BME280;25666;44.350;9.222;2023-05-24T04:48:29;101434.41;;;16.33;100.00
32324;BME280;25666;44.350;9.222;2023-05-24T04:50:55;101442.53;;;16.38;100.00
32324;BME280;25666;44.350;9.222;2023-05-24T04:53:22;101438.97;;;16.60;100.00
32324;BME280;25666;44.350;9.222;2023-05-24T04:55:48;101435.91;;;16.69;100.00
32324;BME280;25666;44.350;9.222;2023-05-24T04:58:14;101444.41;;;16.72;100.00
32324;BME280;25666;44.350;9.222;2023-05-24T05:00:40;101438.03;;;16.75;100.00
32324;BME280;25666;44.350;9.222;2023-05-24T05:03:06;101443.88;;;16.89;100.00
32324;BME280;25666;44.350;9.222;2023-05-24T05:05:32;101446.25;;;17.10;100.00
32324;BME280;25666;44.350;9.222;2023-05-24T05:07:59;101440.41;;;17.22;100.00
32324;BME280;25666;44.350;9.222;2023-05-24T05:10:24;101448.16;;;17.32;100.00
32324;BME280;25666;44.350;9.222;2023-05-24T05:12:50;101442.72;;;17.43;100.00
32324;BME280;25666;44.350;9.222;2023-05-24T05:15:16;101439.03;;;17.65;100.00
32324;BME280;25666;44.350;9.222;2023-05-24T05:17:41;101430.50;;;17.88;100.00
32324;BME280;25666;44.350;9.222;2023-05-24T05:20:07;101432.75;;;18.08;100.00
32324;BME280;25666;44.350;9.222;2023-05-24T05:22:32;101431.56;;;18.09;100.00
32324;BME280;25666;44.350;9.222;2023-05-24T05:24:59;101431.16;;;18.11;100.00
32324;BME280;25666;44.350;9.222;2023-05-24T05:27:24;101440.22;;;18.27;100.00
32324;BME280;25666;44.350;9.222;2023-05-24T05:29:50;101432.16;;;18.26;100.00
32324;BME280;25666;44.350;9.222;2023-05-24T05:32:15;101436.16;;;18.61;100.00
32324;BME280;25666;44.350;9.222;2023-05-24T05:34:41;101434.06;;;18.99;100.00
32324;BME280;25666;44.350;9.222;2023-05-24T05:37:06;101432.72;;;19.33;100.00
32324;BME280;25666;44.350;9.222;2023-05-24T05:39:32;101436.66;;;19.21;100.00
32324;BME280;25666;44.350;9.222;2023-05-24T05:41:58;101431.03;;;19.87;100.00
32324;BME280;25666;44.350;9.222;2023-05-24T05:44:23;101418.72;;;21.40;100.00
32324;BME280;25666;44.350;9.222;2023-05-24T05:46:49;101410.75;;;22.83;100.00
32324;BME280;25666;44.350;9.222;2023-05-24T05:49:14;101416.53;;;23.92;100.00
32324;BME280;25666;44.350;9.222;2023-05-24T05:51:43;101410.53;;;25.63;100.00
32324;BME280;25666;44.350;9.222;2023-05-24T05:54:09;101406.16;;;26.70;100.00
32324;BME280;25666;44.350;9.222;2023-05-24T05:56:42;101403.56;;;26.43;100.00
32324;BME280;25666;44.350;9.222;2023-05-24T05:59:13;101404.22;;;28.55;100.00
32324;BME280;25666;44.350;9.222;2023-05-24T06:01:43;101397.19;;;29.97;100.00
32324;BME280;25666;44.350;9.222;2023-05-24T06:04:11;101407.38;;;30.82;99.20
32324;BME280;25666;44.350;9.222;2023-05-24T06:06:37;101404.41;;;31.03;94.42
32324;BME280;25666;44.350;9.222;2023-05-24T06:09:03;101405.25;;;31.76;85.29
32324;BME280;25666;44.350;9.222;2023-05-24T06:11:28;101406.72;;;31.63;84.97
32324;BME280;25666;44.350;9.222;2023-05-24T06:13:54;101408.22;;;33.02;74.68
32324;BME280;25666;44.350;9.222;2023-05-24T06:16:19;101405.72;;;33.81;65.45
32324;BME280;25666;44.350;9.222;2023-05-24T06:18:46;101400.66;;;33.52;65.06
32324;BME280;25666;44.350;9.222;2023-05-24T06:21:15;101401.16;;;32.79;65.19
32324;BME280;25666;44.350;9.222;2023-05-24T06:23:41;101401.56;;;32.54;68.74
32324;BME280;25666;44.350;9.222;2023-05-24T06:26:10;101394.97;;;33.43;65.15
32324;BME280;25666;44.350;9.222;2023-05-24T06:28:36;101393.69;;;35.25;53.41
32324;BME280;25666;44.350;9.222;2023-05-24T06:31:02;101392.28;;;35.41;53.61
32324;BME280;25666;44.350;9.222;2023-05-24T06:33:28;101396.25;;;36.41;49.40
32324;BME280;25666;44.350;9.222;2023-05-24T06:35:54;101394.28;;;36.95;46.96
32324;BME280;25666;44.350;9.222;2023-05-24T06:38:19;101392.72;;;36.57;46.60
32324;BME280;25666;44.350;9.222;2023-05-24T06:40:45;101395.47;;;37.68;42.95
32324;BME280;25666;44.350;9.222;2023-05-24T06:43:11;101386.56;;;37.93;42.71
32324;BME280;25666;44.350;9.222;2023-05-24T06:45:39;101384.72;;;38.29;40.50
32324;BME280;25666;44.350;9.222;2023-05-24T06:48:05;101383.25;;;39.30;37.66
32324;BME280;25666;44.350;9.222;2023-05-24T06:50:30;101383.50;;;39.84;35.33
32324;BME280;25666;44.350;9.222;2023-05-24T06:52:56;101376.97;;;40.08;34.88
32324;BME280;25666;44.350;9.222;2023-05-24T06:55:21;101384.72;;;40.89;31.98
32324;BME280;25666;44.350;9.222;2023-05-24T06:57:47;101376.69;;;40.71;31.24
32324;BME280;25666;44.350;9.222;2023-05-24T07:00:13;101365.53;;;40.75;30.30
32324;BME280;25666;44.350;9.222;2023-05-24T07:02:39;101369.47;;;41.63;28.42
32324;BME280;25666;44.350;9.222;2023-05-24T07:05:05;101370.13;;;41.38;28.16
32324;BME280;25666;44.350;9.222;2023-05-24T07:07:37;101374.56;;;40.72;28.94
32324;BME280;25666;44.350;9.222;2023-05-24T07:10:02;101366.44;;;40.35;28.26
32324;BME280;25666;44.350;9.222;2023-05-24T07:12:28;101373.78;;;40.41;28.56
32324;BME280;25666;44.350;9.222;2023-05-24T07:14:54;101378.28;;;40.42;28.91
32324;BME280;25666;44.350;9.222;2023-05-24T07:17:20;101372.22;;;39.01;29.34
32324;BME280;25666;44.350;9.222;2023-05-24T07:19:46;101369.41;;;38.34;29.87
32324;BME280;25666;44.350;9.222;2023-05-24T07:22:11;101376.56;;;38.50;30.01
32324;BME280;25666;44.350;9.222;2023-05-24T07:24:36;101372.78;;;38.94;29.10
32324;BME280;25666;44.350;9.222;2023-05-24T07:27:02;101378.50;;;37.55;29.56
32324;BME280;25666;44.350;9.222;2023-05-24T07:29:29;101373.66;;;37.41;30.26
32324;BME280;25666;44.350;9.222;2023-05-24T07:31:54;101368.56;;;38.73;29.62
32324;BME280;25666;44.350;9.222;2023-05-24T07:34:20;101377.03;;;38.82;28.15
32324;BME280;25666;44.350;9.222;2023-05-24T07:36:46;101368.31;;;38.87;28.34
32324;BME280;25666;44.350;9.222;2023-05-24T07:39:13;101374.56;;;37.58;28.57
32324;BME280;25666;44.350;9.222;2023-05-24T07:41:40;101384.13;;;37.81;30.21
32324;BME280;25666;44.350;9.222;2023-05-24T07:44:06;101370.75;;;36.87;31.86
32324;BME280;25666;44.350;9.222;2023-05-24T07:46:31;101376.34;;;36.23;32.33
32324;BME280;25666;44.350;9.222;2023-05-24T07:48:57;101382.81;;;35.40;34.60
32324;BME280;25666;44.350;9.222;2023-05-24T07:51:22;101382.72;;;33.72;36.51
32324;BME280;25666;44.350;9.222;2023-05-24T07:53:48;101371.25;;;33.63;38.16
32324;BME280;25666;44.350;9.222;2023-05-24T07:56:14;101365.47;;;32.35;45.21
32324;BME280;25666;44.350;9.222;2023-05-24T07:58:39;101375.44;;;29.65;67.37
32324;BME280;25666;44.350;9.222;2023-05-24T08:01:06;101381.81;;;28.00;85.04
32324;BME280;25666;44.350;9.222;2023-05-24T08:03:33;101388.72;;;26.84;100.00
32324;BME280;25666;44.350;9.222;2023-05-24T08:05:59;101386.50;;;26.39;100.00
32324;BME280;25666;44.350;9.222;2023-05-24T08:08:24;101380.41;;;26.01;100.00
32324;BME280;25666;44.350;9.222;2023-05-24T08:10:50;101387.50;;;25.54;100.00
32324;BME280;25666;44.350;9.222;2023-05-24T08:13:15;101383.19;;;25.46;100.00
32324;BME280;25666;44.350;9.222;2023-05-24T08:15:41;101384.09;;;25.20;100.00
32324;BME280;25666;44.350;9.222;2023-05-24T08:18:06;101385.59;;;24.78;100.00
32324;BME280;25666;44.350;9.222;2023-05-24T08:20:32;101384.00;;;24.77;100.00
32324;BME280;25666;44.350;9.222;2023-05-24T08:23:00;101386.25;;;24.62;100.00
32324;BME280;25666;44.350;9.222;2023-05-24T08:25:25;101394.78;;;24.09;100.00
32324;BME280;25666;44.350;9.222;2023-05-24T08:27:51;101388.22;;;23.81;100.00
32324;BME280;25666;44.350;9.222;2023-05-24T08:30:17;101392.06;;;23.68;100.00
32324;BME280;25666;44.350;9.222;2023-05-24T08:32:42;101388.53;;;23.57;100.00
32324;BME280;25666;44.350;9.222;2023-05-24T08:35:08;101394.28;;;23.50;100.00
32324;BME280;25666;44.350;9.222;2023-05-24T08:37:33;101388.84;;;23.25;100.00
32324;BME280;25666;44.350;9.222;2023-05-24T08:39:58;101397.19;;;23.05;100.00
32324;BME280;25666;44.350;9.222;2023-05-24T08:42:24;101396.41;;;23.01;100.00
32324;BME280;25666;44.350;9.222;2023-05-24T08:44:59;101396.06;;;22.96;100.00
32324;BME280;25666;44.350;9.222;2023-05-24T08:47:28;101393.34;;;22.78;100.00
32324;BME280;25666;44.350;9.222;2023-05-24T08:49:54;101398.97;;;22.85;100.00
32324;BME280;25666;44.350;9.222;2023-05-24T08:52:21;101396.66;;;22.73;100.00
32324;BME280;25666;44.350;9.222;2023-05-24T08:54:48;101396.03;;;22.40;100.00
32324;BME280;25666;44.350;9.222;2023-05-24T08:57:14;101397.16;;;22.54;100.00
32324;BME280;25666;44.350;9.222;2023-05-24T08:59:40;101398.72;;;22.65;100.00
32324;BME280;25666;44.350;9.222;2023-05-24T09:02:13;101397.50;;;22.66;100.00
32324;BME280;25666;44.350;9.222;2023-05-24T09:04:40;101394.94;;;22.82;100.00
32324;BME280;25666;44.350;9.222;2023-05-24T09:07:09;101395.28;;;22.88;100.00
32324;BME280;25666;44.350;9.222;2023-05-24T09:09:37;101386.31;;;22.93;100.00
32324;BME280;25666;44.350;9.222;2023-05-24T09:12:08;101390.38;;;22.96;100.00
32324;BME280;25666;44.350;9.222;2023-05-24T09:14:35;101392.13;;;22.79;100.00
32324;BME280;25666;44.350;9.222;2023-05-24T09:17:01;101397.84;;;22.75;100.00
32324;BME280;25666;44.350;9.222;2023-05-24T09:19:27;101393.88;;;22.59;100.00
32324;BME280;25666;44.350;9.222;2023-05-24T09:21:53;101395.16;;;22.51;100.00
32324;BME280;25666;44.350;9.222;2023-05-24T09:24:22;101389.47;;;22.54;100.00
32324;BME280;25666;44.350;9.222;2023-05-24T09:26:48;101403.16;;;22.70;100.00
32324;BME280;25666;44.350;9.222;2023-05-24T09:29:15;101398.25;;;22.74;100.00
32324;BME280;25666;44.350;9.222;2023-05-24T09:31:41;101399.00;;;22.81;100.00
32324;BME280;25666;44.350;9.222;2023-05-24T09:34:13;101400.66;;;22.79;100.00
32324;BME280;25666;44.350;9.222;2023-05-24T09:36:45;101398.31;;;22.60;100.00
32324;BME280;25666;44.350;9.222;2023-05-24T09:39:10;101399.94;;;22.61;100.00
32324;BME280;25666;44.350;9.222;2023-05-24T09:41:36;101401.97;;;22.64;100.00
32324;BME280;25666;44.350;9.222;2023-05-24T09:44:02;101408.06;;;22.59;100.00
32324;BME280;25666;44.350;9.222;2023-05-24T09:46:28;101394.69;;;22.56;100.00
32324;BME280;25666;44.350;9.222;2023-05-24T09:48:55;101404.66;;;22.23;100.00
32324;BME280;25666;44.350;9.222;2023-05-24T09:51:21;101403.44;;;22.24;100.00
32324;BME280;25666;44.350;9.222;2023-05-24T09:53:47;101406.34;;;22.13;100.00
32324;BME280;25666;44.350;9.222;2023-05-24T09:56:13;101405.84;;;22.25;100.00
32324;BME280;25666;44.350;9.222;2023-05-24T09:58:39;101403.88;;;22.19;100.00
32324;BME280;25666;44.350;9.222;2023-05-24T10:01:08;101397.63;;;22.49;100.00
32324;BME280;25666;44.350;9.222;2023-05-24T10:03:35;101406.19;;;22.38;100.00
32324;BME280;25666;44.350;9.222;2023-05-24T10:06:02;101397.41;;;22.15;100.00
32324;BME280;25666;44.350;9.222;2023-05-24T10:08:33;101403.38;;;22.34;100.00
32324;BME280;25666;44.350;9.222;2023-05-24T10:11:01;101407.75;;;22.46;100.00
32324;BME280;25666;44.350;9.222;2023-05-24T10:13:27;101400.53;;;22.34;100.00
32324;BME280;25666;44.350;9.222;2023-05-24T10:15:53;101412.81;;;22.17;100.00
32324;BME280;25666;44.350;9.222;2023-05-24T10:18:19;101405.88;;;22.18;100.00
32324;BME280;25666;44.350;9.222;2023-05-24T10:20:44;101408.69;;;22.29;100.00
32324;BME280;25666;44.350;9.222;2023-05-24T10:23:14;101401.78;;;22.30;100.00
32324;BME280;25666;44.350;9.222;2023-05-24T10:25:46;101409.56;;;22.15;100.00
32324;BME280;25666;44.350;9.222;2023-05-24T10:28:15;101409.66;;;21.94;100.00
32324;BME280;25666;44.350;9.222;2023-05-24T10:33:11;101408.88;;;21.83;100.00
32324;BME280;25666;44.350;9.222;2023-05-24T10:35:38;101412.50;;;21.83;100.00
32324;BME280;25666;44.350;9.222;2023-05-24T10:38:07;101408.00;;;22.04;100.00
32324;BME280;25666;44.350;9.222;2023-05-24T10:40:33;101407.66;;;21.84;100.00
32324;BME280;25666;44.350;9.222;2023-05-24T10:43:03;101403.28;;;21.65;100.00
32324;BME280;25666;44.350;9.222;2023-05-24T10:45:30;101395.53;;;21.80;100.00
32324;BME280;25666;44.350;9.222;2023-05-24T10:48:00;101392.34;;;21.67;100.00
32324;BME280;25666;44.350;9.222;2023-05-24T10:50:27;101396.78;;;21.68;100.00
32324;BME280;25666;44.350;9.222;2023-05-24T10:53:13;101403.28;;;21.65;100.00
32324;BME280;25666;44.350;9.222;2023-05-24T10:58:43;101387.00;;;21.94;100.00
32324;BME280;25666;44.350;9.222;2023-05-24T11:01:24;101383.38;;;21.83;100.00
32324;BME280;25666;44.350;9.222;2023-05-24T11:03:51;101389.09;;;21.72;100.00
32324;BME280;25666;44.350;9.222;2023-05-24T11:06:16;101384.97;;;21.87;100.00
32324;BME280;25666;44.350;9.222;2023-05-24T11:08:42;101392.59;;;22.08;100.00
32324;BME280;25666;44.350;9.222;2023-05-24T11:11:14;101391.06;;;21.86;100.00
32324;BME280;25666;44.350;9.222;2023-05-24T11:13:46;101390.25;;;21.85;100.00
32324;BME280;25666;44.350;9.222;2023-05-24T11:16:35;101389.44;;;21.85;100.00
32324;BME280;25666;44.350;9.222;2023-05-24T11:19:34;101380.94;;;21.96;100.00
32324;BME280;25666;44.350;9.222;2023-05-24T11:22:07;101376.00;;;22.03;100.00
32324;BME280;25666;44.350;9.222;2023-05-24T11:24:33;101377.94;;;22.24;100.00
32324;BME280;25666;44.350;9.222;2023-05-24T11:27:00;101376.69;;;22.21;100.00
32324;BME280;25666;44.350;9.222;2023-05-24T11:29:28;101381.19;;;22.15;100.00
32324;BME280;25666;44.350;9.222;2023-05-24T11:31:55;101371.81;;;22.25;100.00
32324;BME280;25666;44.350;9.222;2023-05-24T11:34:29;101382.50;;;21.97;100.00
32324;BME280;25666;44.350;9.222;2023-05-24T11:36:57;101384.16;;;21.94;100.00
32324;BME280;25666;44.350;9.222;2023-05-24T11:39:23;101379.31;;;21.91;100.00
32324;BME280;25666;44.350;9.222;2023-05-24T11:41:53;101371.13;;;22.11;100.00
32324;BME280;25666;44.350;9.222;2023-05-24T11:44:18;101376.69;;;22.21;100.00
32324;BME280;25666;44.350;9.222;2023-05-24T11:46:44;101383.72;;;21.99;100.00
32324;BME280;25666;44.350;9.222;2023-05-24T11:49:14;101382.59;;;21.72;100.00
32324;BME280;25666;44.350;9.222;2023-05-24T11:51:40;101380.13;;;21.84;100.00
32324;BME280;25666;44.350;9.222;2023-05-24T11:54:06;101372.53;;;21.64;100.00
32324;BME280;25666;44.350;9.222;2023-05-24T11:56:32;101382.19;;;21.77;100.00
32324;BME280;25666;44.350;9.222;2023-05-24T11:59:13;101378.94;;;21.89;100.00
32324;BME280;25666;44.350;9.222;2023-05-24T12:01:39;101379.78;;;21.65;100.00
32324;BME280;25666;44.350;9.222;2023-05-24T12:04:06;101373.38;;;21.50;100.00
32324;BME280;25666;44.350;9.222;2023-05-24T12:06:34;101375.31;;;21.74;100.00
32324;BME280;25666;44.350;9.222;2023-05-24T12:09:00;101366.38;;;21.83;100.00
32324;BME280;25666;44.350;9.222;2023-05-24T12:11:25;101371.66;;;21.77;100.00
32324;BME280;25666;44.350;9.222;2023-05-24T12:13:52;101367.16;;;21.83;100.00
32324;BME280;25666;44.350;9.222;2023-05-24T12:16:18;101367.59;;;21.89;100.00
32324;BME280;25666;44.350;9.222;2023-05-24T12:18:43;101366.78;;;21.78;100.00
32324;BME280;25666;44.350;9.222;2023-05-24T12:21:09;101356.66;;;21.80;100.00
32324;BME280;25666;44.350;9.222;2023-05-24T12:23:36;101345.75;;;21.79;100.00
32324;BME280;25666;44.350;9.222;2023-05-24T12:26:02;101352.72;;;21.57;100.00
32324;BME280;25666;44.350;9.222;2023-05-24T12:28:32;101358.72;;;21.76;100.00
32324;BME280;25666;44.350;9.222;2023-05-24T12:31:03;101357.84;;;21.86;100.00
32324;BME280;25666;44.350;9.222;2023-05-24T12:33:29;101363.03;;;22.06;100.00
32324;BME280;25666;44.350;9.222;2023-05-24T12:35:55;101365.53;;;21.93;100.00
32324;BME280;25666;44.350;9.222;2023-05-24T12:38:23;101363.81;;;22.13;100.00
32324;BME280;25666;44.350;9.222;2023-05-24T12:40:50;101375.97;;;22.14;100.00
32324;BME280;25666;44.350;9.222;2023-05-24T12:43:18;101374.66;;;22.25;100.00
32324;BME280;25666;44.350;9.222;2023-05-24T12:45:44;101379.16;;;22.19;100.00
32324;BME280;25666;44.350;9.222;2023-05-24T12:48:09;101377.97;;;22.17;100.00
32324;BME280;25666;44.350;9.222;2023-05-24T12:50:36;101390.13;;;22.14;100.00
32324;BME280;25666;44.350;9.222;2023-05-24T12:53:01;101387.69;;;22.12;100.00
32324;BME280;25666;44.350;9.222;2023-05-24T12:55:27;101385.75;;;21.99;100.00
32324;BME280;25666;44.350;9.222;2023-05-24T12:57:56;101388.25;;;21.79;100.00
32324;BME280;25666;44.350;9.222;2023-05-24T13:00:27;101385.41;;;21.90;100.00